sensor_id;sensor_type;location;lat;lon;timestamp;temperature;humidity
14487;DHT22;7329;50.866;4.366;2022-10-16T00:01:08;18.80;99.90
14487;DHT22;7329;50.866;4.366;2022-10-16T00:03:11;18.80;99.90
14487;DHT22;7329;50.866;4.366;2022-10-16T00:05:14;18.80;99.90
14487;DHT22;7329;50.866;4.366;2022-10-16T00:07:16;18.80;99.90
14487;DHT22;7329;50.866;4.366;2022-10-16T00:09:19;18.80;99.90
14487;DHT22;7329;50.866;4.366;2022-10-16T00:11:22;18.80;99.90
14487;DHT22;7329;50.866;4.366;2022-10-16T00:13:26;18.80;99.90
14487;DHT22;7329;50.866;4.366;2022-10-16T00:15:29;18.80;99.90
14487;DHT22;7329;50.866;4.366;2022-10-16T00:17:31;18.80;99.90
14487;DHT22;7329;50.866;4.366;2022-10-16T00:19:34;18.80;99.90
14487;DHT22;7329;50.866;4.366;2022-10-16T00:21:36;18.80;99.90
14487;DHT22;7329;50.866;4.366;2022-10-16T00:23:38;18.80;99.90
14487;DHT22;7329;50.866;4.366;2022-10-16T00:25:40;18.80;99.90
14487;DHT22;7329;50.866;4.366;2022-10-16T00:27:43;18.80;99.90
14487;DHT22;7329;50.866;4.366;2022-10-16T00:29:49;18.80;99.90
14487;DHT22;7329;50.866;4.366;2022-10-16T00:31:51;18.80;99.90
14487;DHT22;7329;50.866;4.366;2022-10-16T00:33:54;18.80;99.90
14487;DHT22;7329;50.866;4.366;2022-10-16T00:35:57;18.80;99.90
14487;DHT22;7329;50.866;4.366;2022-10-16T00:38:00;18.80;99.90
14487;DHT22;7329;50.866;4.366;2022-10-16T00:40:02;18.80;99.90
14487;DHT22;7329;50.866;4.366;2022-10-16T00:42:04;18.80;99.90
14487;DHT22;7329;50.866;4.366;2022-10-16T00:46:43;18.80;99.90
14487;DHT22;7329;50.866;4.366;2022-10-16T00:48:50;18.80;99.90
14487;DHT22;7329;50.866;4.366;2022-10-16T00:50:53;18.80;99.90
14487;DHT22;7329;50.866;4.366;2022-10-16T00:52:56;18.80;99.90
14487;DHT22;7329;50.866;4.366;2022-10-16T00:55:00;18.80;99.90
14487;DHT22;7329;50.866;4.366;2022-10-16T00:57:05;18.80;99.90
14487;DHT22;7329;50.866;4.366;2022-10-16T00:59:14;18.80;99.90
14487;DHT22;7329;50.866;4.366;2022-10-16T01:01:17;18.80;99.90
14487;DHT22;7329;50.866;4.366;2022-10-16T01:03:26;18.80;99.90
14487;DHT22;7329;50.866;4.366;2022-10-16T01:05:34;18.80;99.90
14487;DHT22;7329;50.866;4.366;2022-10-16T01:07:45;18.80;99.90
14487;DHT22;7329;50.866;4.366;2022-10-16T01:10:01;18.80;99.90
14487;DHT22;7329;50.866;4.366;2022-10-16T01:12:09;18.80;99.90
14487;DHT22;7329;50.866;4.366;2022-10-16T01:14:21;18.80;99.90
14487;DHT22;7329;50.866;4.366;2022-10-16T01:16:30;18.80;99.90
14487;DHT22;7329;50.866;4.366;2022-10-16T01:18:41;18.80;99.90
14487;DHT22;7329;50.866;4.366;2022-10-16T01:20:48;18.70;99.90
14487;DHT22;7329;50.866;4.366;2022-10-16T01:25:21;18.80;99.90
14487;DHT22;7329;50.866;4.366;2022-10-16T01:27:29;18.80;99.90
14487;DHT22;7329;50.866;4.366;2022-10-16T01:29:36;18.80;99.90
14487;DHT22;7329;50.866;4.366;2022-10-16T01:31:40;18.70;99.90
14487;DHT22;7329;50.866;4.366;2022-10-16T01:33:45;18.70;99.90
14487;DHT22;7329;50.866;4.366;2022-10-16T01:35:55;18.70;99.90
14487;DHT22;7329;50.866;4.366;2022-10-16T01:38:01;18.80;99.90
14487;DHT22;7329;50.866;4.366;2022-10-16T01:40:09;18.70;99.90
14487;DHT22;7329;50.866;4.366;2022-10-16T01:42:15;18.70;99.90
14487;DHT22;7329;50.866;4.366;2022-10-16T01:44:22;18.70;99.90
14487;DHT22;7329;50.866;4.366;2022-10-16T01:46:28;18.70;99.90
14487;DHT22;7329;50.866;4.366;2022-10-16T01:48:31;18.70;99.90
14487;DHT22;7329;50.866;4.366;2022-10-16T01:50:38;18.70;99.90
14487;DHT22;7329;50.866;4.366;2022-10-16T01:52:44;18.70;99.90
14487;DHT22;7329;50.866;4.366;2022-10-16T01:54:48;18.70;99.90
14487;DHT22;7329;50.866;4.366;2022-10-16T01:56:51;18.70;99.90
14487;DHT22;7329;50.866;4.366;2022-10-16T01:58:57;18.70;99.90
14487;DHT22;7329;50.866;4.366;2022-10-16T02:01:03;18.70;99.90
14487;DHT22;7329;50.866;4.366;2022-10-16T02:03:07;18.70;99.90
14487;DHT22;7329;50.866;4.366;2022-10-16T02:05:14;18.70;99.90
14487;DHT22;7329;50.866;4.366;2022-10-16T02:07:18;18.70;99.90
14487;DHT22;7329;50.866;4.366;2022-10-16T02:09:20;18.70;99.90
14487;DHT22;7329;50.866;4.366;2022-10-16T02:11:22;18.70;99.90
14487;DHT22;7329;50.866;4.366;2022-10-16T02:13:29;18.70;99.90
14487;DHT22;7329;50.866;4.366;2022-10-16T02:15:32;18.70;99.90
14487;DHT22;7329;50.866;4.366;2022-10-16T02:17:35;18.70;99.90
14487;DHT22;7329;50.866;4.366;2022-10-16T02:19:38;18.70;99.90
14487;DHT22;7329;50.866;4.366;2022-10-16T02:21:44;18.70;99.90
14487;DHT22;7329;50.866;4.366;2022-10-16T02:23:57;18.70;99.90
14487;DHT22;7329;50.866;4.366;2022-10-16T02:26:04;18.70;99.90
14487;DHT22;7329;50.866;4.366;2022-10-16T02:28:12;18.70;99.90
14487;DHT22;7329;50.866;4.366;2022-10-16T02:30:21;18.70;99.90
14487;DHT22;7329;50.866;4.366;2022-10-16T02:32:27;18.70;99.90
14487;DHT22;7329;50.866;4.366;2022-10-16T02:34:33;18.70;99.90
14487;DHT22;7329;50.866;4.366;2022-10-16T02:36:36;18.70;99.90
14487;DHT22;7329;50.866;4.366;2022-10-16T02:38:40;18.70;99.90
14487;DHT22;7329;50.866;4.366;2022-10-16T02:40:42;18.70;99.90
14487;DHT22;7329;50.866;4.366;2022-10-16T02:42:49;18.70;99.90
14487;DHT22;7329;50.866;4.366;2022-10-16T02:44:52;18.70;99.90
14487;DHT22;7329;50.866;4.366;2022-10-16T02:46:54;18.70;99.90
14487;DHT22;7329;50.866;4.366;2022-10-16T02:48:56;18.70;99.90
14487;DHT22;7329;50.866;4.366;2022-10-16T02:51:00;18.70;99.90
14487;DHT22;7329;50.866;4.366;2022-10-16T02:53:02;18.70;99.90
14487;DHT22;7329;50.866;4.366;2022-10-16T02:55:05;18.70;99.90
14487;DHT22;7329;50.866;4.366;2022-10-16T02:57:08;18.70;99.90
14487;DHT22;7329;50.866;4.366;2022-10-16T02:59:10;18.70;99.90
14487;DHT22;7329;50.866;4.366;2022-10-16T03:01:12;18.70;99.90
14487;DHT22;7329;50.866;4.366;2022-10-16T03:03:17;18.70;99.90
14487;DHT22;7329;50.866;4.366;2022-10-16T03:05:19;18.70;99.90
14487;DHT22;7329;50.866;4.366;2022-10-16T03:07:23;18.70;99.90
14487;DHT22;7329;50.866;4.366;2022-10-16T03:09:25;18.70;99.90
14487;DHT22;7329;50.866;4.366;2022-10-16T03:11:27;18.70;99.90
14487;DHT22;7329;50.866;4.366;2022-10-16T03:13:30;18.70;99.90
14487;DHT22;7329;50.866;4.366;2022-10-16T03:15:32;18.70;99.90
14487;DHT22;7329;50.866;4.366;2022-10-16T03:17:34;18.70;99.90
14487;DHT22;7329;50.866;4.366;2022-10-16T03:19:37;18.70;99.90
14487;DHT22;7329;50.866;4.366;2022-10-16T03:21:39;18.70;99.90
14487;DHT22;7329;50.866;4.366;2022-10-16T03:23:42;18.60;99.90
14487;DHT22;7329;50.866;4.366;2022-10-16T03:25:45;18.70;99.90
14487;DHT22;7329;50.866;4.366;2022-10-16T03:27:47;18.70;99.90
14487;DHT22;7329;50.866;4.366;2022-10-16T03:29:49;18.60;99.90
14487;DHT22;7329;50.866;4.366;2022-10-16T03:31:52;18.70;99.90
14487;DHT22;7329;50.866;4.366;2022-10-16T03:33:54;18.70;99.90
14487;DHT22;7329;50.866;4.366;2022-10-16T03:35:56;18.70;99.90
14487;DHT22;7329;50.866;4.366;2022-10-16T03:37:58;18.60;99.90
14487;DHT22;7329;50.866;4.366;2022-10-16T03:40:03;18.60;99.90
14487;DHT22;7329;50.866;4.366;2022-10-16T03:42:05;18.60;99.90
14487;DHT22;7329;50.866;4.366;2022-10-16T03:44:07;18.60;99.90
14487;DHT22;7329;50.866;4.366;2022-10-16T03:46:10;18.70;99.90
14487;DHT22;7329;50.866;4.366;2022-10-16T03:48:12;18.70;99.90
14487;DHT22;7329;50.866;4.366;2022-10-16T03:50:14;18.60;99.90
14487;DHT22;7329;50.866;4.366;2022-10-16T03:52:17;18.60;99.90
14487;DHT22;7329;50.866;4.366;2022-10-16T03:54:19;18.70;99.90
14487;DHT22;7329;50.866;4.366;2022-10-16T03:56:24;18.60;99.90
14487;DHT22;7329;50.866;4.366;2022-10-16T03:58:26;18.70;99.90
14487;DHT22;7329;50.866;4.366;2022-10-16T04:00:29;18.60;99.90
14487;DHT22;7329;50.866;4.366;2022-10-16T04:02:31;18.60;99.90
14487;DHT22;7329;50.866;4.366;2022-10-16T04:04:33;18.60;99.90
14487;DHT22;7329;50.866;4.366;2022-10-16T04:06:35;18.60;99.90
14487;DHT22;7329;50.866;4.366;2022-10-16T04:08:38;18.60;99.90
14487;DHT22;7329;50.866;4.366;2022-10-16T04:10:42;18.60;99.90
14487;DHT22;7329;50.866;4.366;2022-10-16T04:12:46;18.60;99.90
14487;DHT22;7329;50.866;4.366;2022-10-16T04:14:48;18.60;99.90
14487;DHT22;7329;50.866;4.366;2022-10-16T04:16:50;18.70;99.90
14487;DHT22;7329;50.866;4.366;2022-10-16T04:18:52;18.70;99.90
14487;DHT22;7329;50.866;4.366;2022-10-16T04:20:55;18.70;99.90
14487;DHT22;7329;50.866;4.366;2022-10-16T04:22:57;18.70;99.90
14487;DHT22;7329;50.866;4.366;2022-10-16T04:24:59;18.70;99.90
14487;DHT22;7329;50.866;4.366;2022-10-16T04:27:02;18.60;99.90
14487;DHT22;7329;50.866;4.366;2022-10-16T04:29:05;18.60;99.90
14487;DHT22;7329;50.866;4.366;2022-10-16T04:31:08;18.60;99.90
14487;DHT22;7329;50.866;4.366;2022-10-16T04:33:10;18.60;99.90
14487;DHT22;7329;50.866;4.366;2022-10-16T04:35:13;18.60;99.90
14487;DHT22;7329;50.866;4.366;2022-10-16T04:37:16;18.60;99.90
14487;DHT22;7329;50.866;4.366;2022-10-16T04:39:18;18.60;99.90
14487;DHT22;7329;50.866;4.366;2022-10-16T04:41:20;18.60;99.90
14487;DHT22;7329;50.866;4.366;2022-10-16T04:43:23;18.60;99.90
14487;DHT22;7329;50.866;4.366;2022-10-16T04:45:26;18.60;99.90
14487;DHT22;7329;50.866;4.366;2022-10-16T04:47:29;18.60;99.90
14487;DHT22;7329;50.866;4.366;2022-10-16T04:49:31;18.60;99.90
14487;DHT22;7329;50.866;4.366;2022-10-16T04:51:33;18.60;99.90
14487;DHT22;7329;50.866;4.366;2022-10-16T04:53:36;18.60;99.90
14487;DHT22;7329;50.866;4.366;2022-10-16T04:55:38;18.60;99.90
14487;DHT22;7329;50.866;4.366;2022-10-16T04:57:40;18.60;99.90
14487;DHT22;7329;50.866;4.366;2022-10-16T04:59:43;18.60;99.90
14487;DHT22;7329;50.866;4.366;2022-10-16T05:01:47;18.60;99.90
14487;DHT22;7329;50.866;4.366;2022-10-16T05:03:49;18.60;99.90
14487;DHT22;7329;50.866;4.366;2022-10-16T05:05:51;18.60;99.90
14487;DHT22;7329;50.866;4.366;2022-10-16T05:07:54;18.60;99.90
14487;DHT22;7329;50.866;4.366;2022-10-16T05:09:56;18.60;99.90
14487;DHT22;7329;50.866;4.366;2022-10-16T05:11:58;18.60;99.90
14487;DHT22;7329;50.866;4.366;2022-10-16T05:14:01;18.60;99.90
14487;DHT22;7329;50.866;4.366;2022-10-16T05:16:03;18.60;99.90
14487;DHT22;7329;50.866;4.366;2022-10-16T05:18:08;18.60;99.90
14487;DHT22;7329;50.866;4.366;2022-10-16T05:20:11;18.60;99.90
14487;DHT22;7329;50.866;4.366;2022-10-16T05:22:13;18.60;99.90
14487;DHT22;7329;50.866;4.366;2022-10-16T05:24:16;18.60;99.90
14487;DHT22;7329;50.866;4.366;2022-10-16T05:26:18;18.60;99.90
14487;DHT22;7329;50.866;4.366;2022-10-16T05:28:20;18.60;99.90
14487;DHT22;7329;50.866;4.366;2022-10-16T05:30:23;18.60;99.90
14487;DHT22;7329;50.866;4.366;2022-10-16T05:32:25;18.60;99.90
14487;DHT22;7329;50.866;4.366;2022-10-16T05:34:29;18.60;99.90
14487;DHT22;7329;50.866;4.366;2022-10-16T05:36:31;18.60;99.90
14487;DHT22;7329;50.866;4.366;2022-10-16T05:38:33;18.60;99.90
14487;DHT22;7329;50.866;4.366;2022-10-16T05:40:35;18.50;99.90
14487;DHT22;7329;50.866;4.366;2022-10-16T05:42:38;18.50;99.90
14487;DHT22;7329;50.866;4.366;2022-10-16T05:44:40;18.50;99.90
14487;DHT22;7329;50.866;4.366;2022-10-16T05:46:43;18.60;99.90
14487;DHT22;7329;50.866;4.366;2022-10-16T05:48:45;18.50;99.90
14487;DHT22;7329;50.866;4.366;2022-10-16T05:50:55;18.50;99.90
14487;DHT22;7329;50.866;4.366;2022-10-16T05:52:57;18.50;99.90
14487;DHT22;7329;50.866;4.366;2022-10-16T05:55:00;18.50;99.90
14487;DHT22;7329;50.866;4.366;2022-10-16T05:57:02;18.50;99.90
14487;DHT22;7329;50.866;4.366;2022-10-16T05:59:06;18.50;99.90
14487;DHT22;7329;50.866;4.366;2022-10-16T06:01:11;18.50;99.90
14487;DHT22;7329;50.866;4.366;2022-10-16T06:03:13;18.50;99.90
14487;DHT22;7329;50.866;4.366;2022-10-16T06:05:15;18.50;99.90
14487;DHT22;7329;50.866;4.366;2022-10-16T06:07:19;18.50;99.90
14487;DHT22;7329;50.866;4.366;2022-10-16T06:09:21;18.50;99.90
14487;DHT22;7329;50.866;4.366;2022-10-16T06:11:25;18.50;99.90
14487;DHT22;7329;50.866;4.366;2022-10-16T06:13:28;18.50;99.90
14487;DHT22;7329;50.866;4.366;2022-10-16T06:15:30;18.50;99.90
14487;DHT22;7329;50.866;4.366;2022-10-16T06:17:32;18.50;99.90
14487;DHT22;7329;50.866;4.366;2022-10-16T06:19:34;18.50;99.90
14487;DHT22;7329;50.866;4.366;2022-10-16T06:21:37;18.50;99.90
14487;DHT22;7329;50.866;4.366;2022-10-16T06:23:40;18.50;99.90
14487;DHT22;7329;50.866;4.366;2022-10-16T06:25:43;18.50;99.90
14487;DHT22;7329;50.866;4.366;2022-10-16T06:27:45;18.50;99.90
14487;DHT22;7329;50.866;4.366;2022-10-16T06:29:47;18.50;99.90
14487;DHT22;7329;50.866;4.366;2022-10-16T06:31:50;18.50;99.90
14487;DHT22;7329;50.866;4.366;2022-10-16T06:33:53;18.50;99.90
14487;DHT22;7329;50.866;4.366;2022-10-16T06:36:01;18.50;99.90
14487;DHT22;7329;50.866;4.366;2022-10-16T06:38:04;18.50;99.90
14487;DHT22;7329;50.866;4.366;2022-10-16T06:40:08;18.50;99.90
14487;DHT22;7329;50.866;4.366;2022-10-16T06:42:10;18.50;99.90
14487;DHT22;7329;50.866;4.366;2022-10-16T06:44:13;18.50;99.90
14487;DHT22;7329;50.866;4.366;2022-10-16T06:46:17;18.50;99.90
14487;DHT22;7329;50.866;4.366;2022-10-16T06:48:20;18.50;99.90
14487;DHT22;7329;50.866;4.366;2022-10-16T06:50:22;18.50;99.90
14487;DHT22;7329;50.866;4.366;2022-10-16T06:52:26;18.50;99.90
14487;DHT22;7329;50.866;4.366;2022-10-16T06:54:31;18.50;99.90
14487;DHT22;7329;50.866;4.366;2022-10-16T06:56:35;18.50;99.90
14487;DHT22;7329;50.866;4.366;2022-10-16T06:58:38;18.50;99.90
14487;DHT22;7329;50.866;4.366;2022-10-16T07:00:41;18.60;99.90
14487;DHT22;7329;50.866;4.366;2022-10-16T07:02:43;18.50;99.90
14487;DHT22;7329;50.866;4.366;2022-10-16T07:04:45;18.50;99.90
14487;DHT22;7329;50.866;4.366;2022-10-16T07:06:48;18.60;99.90
14487;DHT22;7329;50.866;4.366;2022-10-16T07:08:50;18.50;99.90
14487;DHT22;7329;50.866;4.366;2022-10-16T07:10:58;18.50;99.90
14487;DHT22;7329;50.866;4.366;2022-10-16T07:13:03;18.50;99.90
14487;DHT22;7329;50.866;4.366;2022-10-16T07:15:06;18.50;99.90
14487;DHT22;7329;50.866;4.366;2022-10-16T07:17:08;18.60;99.90
14487;DHT22;7329;50.866;4.366;2022-10-16T07:19:11;18.60;99.90
14487;DHT22;7329;50.866;4.366;2022-10-16T07:21:16;18.50;99.90
14487;DHT22;7329;50.866;4.366;2022-10-16T07:23:20;18.60;99.90
14487;DHT22;7329;50.866;4.366;2022-10-16T07:25:22;18.60;99.90
14487;DHT22;7329;50.866;4.366;2022-10-16T07:27:25;18.60;99.90
14487;DHT22;7329;50.866;4.366;2022-10-16T07:29:28;18.60;99.90
14487;DHT22;7329;50.866;4.366;2022-10-16T07:31:31;18.60;99.90
14487;DHT22;7329;50.866;4.366;2022-10-16T07:33:34;18.60;99.90
14487;DHT22;7329;50.866;4.366;2022-10-16T07:35:37;18.60;99.90
14487;DHT22;7329;50.866;4.366;2022-10-16T07:37:39;18.60;99.90
14487;DHT22;7329;50.866;4.366;2022-10-16T07:39:41;18.60;99.90
14487;DHT22;7329;50.866;4.366;2022-10-16T07:41:43;18.60;99.90
14487;DHT22;7329;50.866;4.366;2022-10-16T07:43:46;18.60;99.90
14487;DHT22;7329;50.866;4.366;2022-10-16T07:45:50;18.60;99.90
14487;DHT22;7329;50.866;4.366;2022-10-16T07:47:53;18.60;99.90
14487;DHT22;7329;50.866;4.366;2022-10-16T07:49:55;18.60;99.90
14487;DHT22;7329;50.866;4.366;2022-10-16T07:51:57;18.60;99.90
14487;DHT22;7329;50.866;4.366;2022-10-16T07:53:59;18.60;99.90
14487;DHT22;7329;50.866;4.366;2022-10-16T07:56:04;18.60;99.90
14487;DHT22;7329;50.866;4.366;2022-10-16T07:58:07;18.60;99.90
14487;DHT22;7329;50.866;4.366;2022-10-16T08:00:11;18.60;99.90
14487;DHT22;7329;50.866;4.366;2022-10-16T08:02:16;18.60;99.90
14487;DHT22;7329;50.866;4.366;2022-10-16T08:04:18;18.60;99.90
14487;DHT22;7329;50.866;4.366;2022-10-16T08:06:21;18.60;99.90
14487;DHT22;7329;50.866;4.366;2022-10-16T08:08:24;18.60;99.90
14487;DHT22;7329;50.866;4.366;2022-10-16T08:10:27;18.60;99.90
14487;DHT22;7329;50.866;4.366;2022-10-16T08:12:30;18.60;99.90
14487;DHT22;7329;50.866;4.366;2022-10-16T08:14:32;18.60;99.90
14487;DHT22;7329;50.866;4.366;2022-10-16T08:16:34;18.60;99.90
14487;DHT22;7329;50.866;4.366;2022-10-16T08:18:39;18.60;99.90
14487;DHT22;7329;50.866;4.366;2022-10-16T08:20:43;18.60;99.90
14487;DHT22;7329;50.866;4.366;2022-10-16T08:22:45;18.60;99.90
14487;DHT22;7329;50.866;4.366;2022-10-16T08:24:47;18.60;99.90
14487;DHT22;7329;50.866;4.366;2022-10-16T08:26:49;18.60;99.90
14487;DHT22;7329;50.866;4.366;2022-10-16T08:28:52;18.70;99.90
14487;DHT22;7329;50.866;4.366;2022-10-16T08:30:54;18.70;99.90
14487;DHT22;7329;50.866;4.366;2022-10-16T08:32:57;18.70;99.90
14487;DHT22;7329;50.866;4.366;2022-10-16T08:35:01;18.70;99.90
14487;DHT22;7329;50.866;4.366;2022-10-16T08:37:04;18.70;99.90
14487;DHT22;7329;50.866;4.366;2022-10-16T08:39:08;18.70;99.90
14487;DHT22;7329;50.866;4.366;2022-10-16T08:41:33;18.70;99.90
14487;DHT22;7329;50.866;4.366;2022-10-16T08:44:00;18.70;99.90
14487;DHT22;7329;50.866;4.366;2022-10-16T08:46:17;18.70;99.90
14487;DHT22;7329;50.866;4.366;2022-10-16T08:48:27;18.70;99.90
14487;DHT22;7329;50.866;4.366;2022-10-16T08:50:37;18.70;99.90
14487;DHT22;7329;50.866;4.366;2022-10-16T08:52:43;18.70;99.90
14487;DHT22;7329;50.866;4.366;2022-10-16T08:54:48;18.70;99.90
14487;DHT22;7329;50.866;4.366;2022-10-16T08:56:54;18.70;99.90
14487;DHT22;7329;50.866;4.366;2022-10-16T08:58:58;18.70;99.90
14487;DHT22;7329;50.866;4.366;2022-10-16T09:01:02;18.70;99.90
14487;DHT22;7329;50.866;4.366;2022-10-16T09:03:14;18.70;99.90
14487;DHT22;7329;50.866;4.366;2022-10-16T09:05:41;18.70;99.90
14487;DHT22;7329;50.866;4.366;2022-10-16T09:07:53;18.70;99.90
14487;DHT22;7329;50.866;4.366;2022-10-16T09:10:08;18.70;99.90
14487;DHT22;7329;50.866;4.366;2022-10-16T09:12:17;18.70;99.90
14487;DHT22;7329;50.866;4.366;2022-10-16T09:14:43;18.70;99.90
14487;DHT22;7329;50.866;4.366;2022-10-16T09:16:51;18.70;99.90
14487;DHT22;7329;50.866;4.366;2022-10-16T09:19:00;18.70;99.90
14487;DHT22;7329;50.866;4.366;2022-10-16T09:21:11;18.70;99.90
14487;DHT22;7329;50.866;4.366;2022-10-16T09:23:17;18.70;99.90
14487;DHT22;7329;50.866;4.366;2022-10-16T09:25:21;18.70;99.90
14487;DHT22;7329;50.866;4.366;2022-10-16T09:27:23;18.80;99.90
14487;DHT22;7329;50.866;4.366;2022-10-16T09:29:26;18.70;99.90
14487;DHT22;7329;50.866;4.366;2022-10-16T09:31:28;18.70;99.90
14487;DHT22;7329;50.866;4.366;2022-10-16T09:33:36;18.70;99.90
14487;DHT22;7329;50.866;4.366;2022-10-16T09:35:41;18.80;99.90
14487;DHT22;7329;50.866;4.366;2022-10-16T09:37:48;18.80;99.90
14487;DHT22;7329;50.866;4.366;2022-10-16T09:39:52;18.80;99.90
14487;DHT22;7329;50.866;4.366;2022-10-16T09:41:55;18.80;99.90
14487;DHT22;7329;50.866;4.366;2022-10-16T09:43:59;18.80;99.90
14487;DHT22;7329;50.866;4.366;2022-10-16T09:46:03;18.70;99.90
14487;DHT22;7329;50.866;4.366;2022-10-16T09:48:11;18.80;99.90
14487;DHT22;7329;50.866;4.366;2022-10-16T09:50:22;18.70;99.90
14487;DHT22;7329;50.866;4.366;2022-10-16T09:52:26;18.80;99.90
14487;DHT22;7329;50.866;4.366;2022-10-16T09:54:29;18.70;99.90
14487;DHT22;7329;50.866;4.366;2022-10-16T09:56:33;18.80;99.90
14487;DHT22;7329;50.866;4.366;2022-10-16T09:58:37;18.80;99.90
14487;DHT22;7329;50.866;4.366;2022-10-16T10:00:41;18.80;99.90
14487;DHT22;7329;50.866;4.366;2022-10-16T10:02:46;18.80;99.90
14487;DHT22;7329;50.866;4.366;2022-10-16T10:04:50;18.80;99.90
14487;DHT22;7329;50.866;4.366;2022-10-16T10:06:56;18.80;99.90
14487;DHT22;7329;50.866;4.366;2022-10-16T10:09:02;18.80;99.90
14487;DHT22;7329;50.866;4.366;2022-10-16T10:11:07;18.80;99.90
14487;DHT22;7329;50.866;4.366;2022-10-16T10:13:18;18.80;99.90
14487;DHT22;7329;50.866;4.366;2022-10-16T10:15:21;18.80;99.90
14487;DHT22;7329;50.866;4.366;2022-10-16T10:17:26;18.80;99.90
14487;DHT22;7329;50.866;4.366;2022-10-16T10:19:29;18.80;99.90
14487;DHT22;7329;50.866;4.366;2022-10-16T10:21:33;18.80;99.90
14487;DHT22;7329;50.866;4.366;2022-10-16T10:23:35;18.80;99.90
14487;DHT22;7329;50.866;4.366;2022-10-16T10:25:47;18.80;99.90
14487;DHT22;7329;50.866;4.366;2022-10-16T10:28:29;18.80;99.90
14487;DHT22;7329;50.866;4.366;2022-10-16T10:30:40;18.80;99.90
14487;DHT22;7329;50.866;4.366;2022-10-16T10:32:50;18.80;99.90
14487;DHT22;7329;50.866;4.366;2022-10-16T10:35:11;18.80;99.90
14487;DHT22;7329;50.866;4.366;2022-10-16T10:37:26;18.80;99.90
14487;DHT22;7329;50.866;4.366;2022-10-16T10:39:38;18.80;99.90
14487;DHT22;7329;50.866;4.366;2022-10-16T10:42:15;18.80;99.90
14487;DHT22;7329;50.866;4.366;2022-10-16T10:44:30;18.80;99.90
14487;DHT22;7329;50.866;4.366;2022-10-16T10:46:41;18.90;99.90
14487;DHT22;7329;50.866;4.366;2022-10-16T10:49:06;18.90;99.90
14487;DHT22;7329;50.866;4.366;2022-10-16T10:51:13;18.90;99.90
14487;DHT22;7329;50.866;4.366;2022-10-16T10:53:24;18.80;99.90
14487;DHT22;7329;50.866;4.366;2022-10-16T10:55:38;18.90;99.90
14487;DHT22;7329;50.866;4.366;2022-10-16T10:57:54;18.90;99.90
14487;DHT22;7329;50.866;4.366;2022-10-16T11:00:09;18.90;99.90
14487;DHT22;7329;50.866;4.366;2022-10-16T11:02:21;18.90;99.90
14487;DHT22;7329;50.866;4.366;2022-10-16T11:07:02;18.80;99.90
14487;DHT22;7329;50.866;4.366;2022-10-16T11:09:12;18.90;99.90
14487;DHT22;7329;50.866;4.366;2022-10-16T11:11:23;18.80;99.90
14487;DHT22;7329;50.866;4.366;2022-10-16T11:13:31;18.90;99.90
14487;DHT22;7329;50.866;4.366;2022-10-16T11:15:38;18.90;99.90
14487;DHT22;7329;50.866;4.366;2022-10-16T11:17:43;18.80;99.90
14487;DHT22;7329;50.866;4.366;2022-10-16T11:19:49;18.80;99.90
14487;DHT22;7329;50.866;4.366;2022-10-16T11:21:59;18.90;99.90
14487;DHT22;7329;50.866;4.366;2022-10-16T11:24:09;18.90;99.90
14487;DHT22;7329;50.866;4.366;2022-10-16T11:26:18;18.90;99.90
14487;DHT22;7329;50.866;4.366;2022-10-16T11:28:27;18.90;99.90
14487;DHT22;7329;50.866;4.366;2022-10-16T11:30:31;18.90;99.90
14487;DHT22;7329;50.866;4.366;2022-10-16T11:32:49;18.90;99.90
14487;DHT22;7329;50.866;4.366;2022-10-16T11:34:59;18.90;99.90
14487;DHT22;7329;50.866;4.366;2022-10-16T11:37:05;18.90;99.90
14487;DHT22;7329;50.866;4.366;2022-10-16T11:39:19;18.90;99.90
14487;DHT22;7329;50.866;4.366;2022-10-16T11:41:27;18.90;99.90
14487;DHT22;7329;50.866;4.366;2022-10-16T11:43:35;18.90;99.90
14487;DHT22;7329;50.866;4.366;2022-10-16T11:45:42;18.90;99.90
14487;DHT22;7329;50.866;4.366;2022-10-16T11:47:51;18.90;99.90
14487;DHT22;7329;50.866;4.366;2022-10-16T11:50:01;18.90;99.90
14487;DHT22;7329;50.866;4.366;2022-10-16T11:52:08;18.90;99.90
14487;DHT22;7329;50.866;4.366;2022-10-16T11:54:20;18.90;99.90
14487;DHT22;7329;50.866;4.366;2022-10-16T11:56:24;18.90;99.90
14487;DHT22;7329;50.866;4.366;2022-10-16T11:58:31;18.90;99.90
14487;DHT22;7329;50.866;4.366;2022-10-16T12:00:41;18.90;99.90
14487;DHT22;7329;50.866;4.366;2022-10-16T12:02:54;18.90;99.90
14487;DHT22;7329;50.866;4.366;2022-10-16T12:05:11;18.90;99.90
14487;DHT22;7329;50.866;4.366;2022-10-16T12:07:17;18.90;99.90
14487;DHT22;7329;50.866;4.366;2022-10-16T12:09:24;18.90;99.90
14487;DHT22;7329;50.866;4.366;2022-10-16T12:11:36;19.00;99.90
14487;DHT22;7329;50.866;4.366;2022-10-16T12:13:40;19.00;99.90
14487;DHT22;7329;50.866;4.366;2022-10-16T12:15:43;19.00;99.90
14487;DHT22;7329;50.866;4.366;2022-10-16T12:17:45;19.00;99.90
14487;DHT22;7329;50.866;4.366;2022-10-16T12:19:59;19.10;99.90
14487;DHT22;7329;50.866;4.366;2022-10-16T12:22:02;19.10;99.90
14487;DHT22;7329;50.866;4.366;2022-10-16T12:24:05;19.10;99.90
14487;DHT22;7329;50.866;4.366;2022-10-16T12:26:08;19.00;99.90
14487;DHT22;7329;50.866;4.366;2022-10-16T12:28:19;19.00;99.90
14487;DHT22;7329;50.866;4.366;2022-10-16T12:30:24;19.10;99.90
14487;DHT22;7329;50.866;4.366;2022-10-16T12:32:30;19.10;99.90
14487;DHT22;7329;50.866;4.366;2022-10-16T12:34:39;19.10;99.90
14487;DHT22;7329;50.866;4.366;2022-10-16T12:36:45;19.10;99.90
14487;DHT22;7329;50.866;4.366;2022-10-16T12:38:49;19.10;99.90
14487;DHT22;7329;50.866;4.366;2022-10-16T12:40:58;19.10;99.90
14487;DHT22;7329;50.866;4.366;2022-10-16T12:43:12;19.10;99.90
14487;DHT22;7329;50.866;4.366;2022-10-16T12:45:25;19.10;99.90
14487;DHT22;7329;50.866;4.366;2022-10-16T12:47:48;19.10;99.90
14487;DHT22;7329;50.866;4.366;2022-10-16T12:49:52;19.10;99.90
14487;DHT22;7329;50.866;4.366;2022-10-16T12:51:56;19.10;99.90
14487;DHT22;7329;50.866;4.366;2022-10-16T12:53:59;19.10;99.90
14487;DHT22;7329;50.866;4.366;2022-10-16T12:56:09;19.10;99.90
14487;DHT22;7329;50.866;4.366;2022-10-16T12:58:25;19.10;99.90
14487;DHT22;7329;50.866;4.366;2022-10-16T13:00:38;19.10;99.90
14487;DHT22;7329;50.866;4.366;2022-10-16T13:05:32;19.10;99.90
14487;DHT22;7329;50.866;4.366;2022-10-16T13:07:48;19.20;99.90
14487;DHT22;7329;50.866;4.366;2022-10-16T13:10:01;19.20;99.90
14487;DHT22;7329;50.866;4.366;2022-10-16T13:12:23;19.20;99.90
14487;DHT22;7329;50.866;4.366;2022-10-16T13:14:43;19.20;99.90
14487;DHT22;7329;50.866;4.366;2022-10-16T13:16:56;19.20;99.90
14487;DHT22;7329;50.866;4.366;2022-10-16T13:19:15;19.20;99.90
14487;DHT22;7329;50.866;4.366;2022-10-16T13:21:34;19.20;99.90
14487;DHT22;7329;50.866;4.366;2022-10-16T13:23:48;19.20;99.90
14487;DHT22;7329;50.866;4.366;2022-10-16T13:26:04;19.20;99.90
14487;DHT22;7329;50.866;4.366;2022-10-16T13:28:09;19.20;99.90
14487;DHT22;7329;50.866;4.366;2022-10-16T13:30:15;19.20;99.90
14487;DHT22;7329;50.866;4.366;2022-10-16T13:32:20;19.20;99.90
14487;DHT22;7329;50.866;4.366;2022-10-16T13:34:22;19.20;99.90
14487;DHT22;7329;50.866;4.366;2022-10-16T13:36:26;19.20;99.90